Time;durP1;ratioP1;P1;durP2;ratioP2;P2;SDS_P1;SDS_P2;PMS_P1;PMS_P2;Temp;Humidity;BMP_temperature;BMP_pressure;BME280_temperature;BME280_humidity;BME280_pressure;Samples;Min_cycle;Max_cycle;Signal;HPM_P1;HPM_P2
2021/08/22 00:00:30;;;;;;;50.83;26.73;;;17.40;99.90;;;;;;5089357;28;20440;-67
2021/08/22 00:02:58;;;;;;;46.77;25.83;;;17.40;99.90;;;;;;5087015;28;20468;-67
2021/08/22 00:05:28;;;;;;;46.20;25.60;;;17.30;99.90;;;;;;5090597;28;20208;-67
2021/08/22 00:07:57;;;;;;;49.17;27.33;;;17.30;99.90;;;;;;5086947;28;20186;-67
2021/08/22 00:10:26;;;;;;;43.43;24.20;;;17.30;99.90;;;;;;5081399;28;20188;-67
2021/08/22 00:12:55;;;;;;;46.67;24.03;;;17.30;99.90;;;;;;5081404;28;20173;-67
2021/08/22 00:15:24;;;;;;;46.83;27.13;;;17.30;99.90;;;;;;5079090;28;20431;-67
2021/08/22 00:17:52;;;;;;;45.80;24.87;;;17.30;99.90;;;;;;5082409;28;20188;-67
2021/08/22 00:20:21;;;;;;;44.20;24.50;;;17.30;99.90;;;;;;5078981;28;20171;-67
2021/08/22 00:22:50;;;;;;;43.83;25.67;;;17.30;99.90;;;;;;5078922;28;20245;-67
2021/08/22 00:25:20;;;;;;;46.60;25.03;;;17.30;99.90;;;;;;5084607;28;20180;-67
2021/08/22 00:27:48;;;;;;;45.70;24.20;;;17.20;99.90;;;;;;5089107;28;20354;-67
2021/08/22 00:30:17;;;;;;;42.33;24.17;;;17.20;99.90;;;;;;5084641;28;20420;-67
2021/08/22 00:32:45;;;;;;;44.37;25.60;;;17.20;99.90;;;;;;5083779;28;20219;-67
2021/08/22 00:35:13;;;;;;;40.50;23.97;;;17.10;99.90;;;;;;5089653;28;20199;-67
2021/08/22 00:37:41;;;;;;;41.90;23.97;;;17.10;99.90;;;;;;5081730;28;20188;-67
2021/08/22 00:40:11;;;;;;;44.23;25.23;;;17.10;99.90;;;;;;5081925;28;20202;-67
2021/08/22 00:42:41;;;;;;;45.23;24.80;;;17.10;99.90;;;;;;5076460;28;20343;-67
2021/08/22 00:45:10;;;;;;;44.83;25.17;;;17.10;99.90;;;;;;5082371;28;20467;-67
2021/08/22 00:47:41;;;;;;;48.10;24.60;;;17.10;99.90;;;;;;5087151;28;20176;-67
2021/08/22 00:50:12;;;;;;;49.20;24.63;;;17.10;99.90;;;;;;5084444;28;20188;-67
2021/08/22 00:52:40;;;;;;;44.80;24.83;;;17.10;99.90;;;;;;5086415;28;20185;-67
2021/08/22 00:55:10;;;;;;;48.70;25.87;;;17.10;99.90;;;;;;5086549;28;20206;-67
2021/08/22 00:57:40;;;;;;;42.77;24.20;;;17.20;99.90;;;;;;5085304;28;20216;-67
2021/08/22 01:00:09;;;;;;;44.53;25.77;;;17.20;99.90;;;;;;5084355;28;20204;-67
2021/08/22 01:02:45;;;;;;;42.60;23.37;;;17.20;99.90;;;;;;5080342;28;20394;-67
2021/08/22 01:05:21;;;;;;;42.67;24.53;;;17.20;99.90;;;;;;5082954;28;20223;-67
2021/08/22 01:07:57;;;;;;;44.67;25.20;;;17.20;99.90;;;;;;5090744;28;20202;-67
2021/08/22 01:10:27;;;;;;;46.73;24.83;;;17.20;99.90;;;;;;5079441;28;20187;-67
2021/08/22 01:13:04;;;;;;;42.43;24.33;;;17.20;99.90;;;;;;5080044;28;20376;-67
2021/08/22 01:15:35;;;;;;;44.97;23.33;;;17.20;99.90;;;;;;5079626;28;20188;-67
2021/08/22 01:18:06;;;;;;;46.80;24.63;;;17.20;99.90;;;;;;5083300;28;20230;-67
2021/08/22 01:20:43;;;;;;;43.70;24.43;;;17.20;99.90;;;;;;5079131;28;20176;-67
2021/08/22 01:23:13;;;;;;;39.57;23.40;;;17.20;99.90;;;;;;5078301;28;20424;-67
2021/08/22 01:25:43;;;;;;;41.37;24.13;;;17.20;99.90;;;;;;5085800;28;20184;-67
2021/08/22 01:28:13;;;;;;;36.00;22.30;;;17.20;99.90;;;;;;5097180;28;20181;-67
2021/08/22 01:30:45;;;;;;;42.20;23.20;;;17.20;99.90;;;;;;5082586;28;20204;-67
2021/08/22 01:33:18;;;;;;;42.00;24.10;;;17.20;99.90;;;;;;5088693;28;20185;-67
2021/08/22 01:35:49;;;;;;;39.60;21.47;;;17.20;99.90;;;;;;5082333;28;20196;-67
2021/08/22 01:38:18;;;;;;;39.00;21.83;;;17.20;99.90;;;;;;5082541;28;20236;-67
2021/08/22 01:40:47;;;;;;;38.07;21.57;;;17.20;99.90;;;;;;5082045;28;20190;-67
2021/08/22 01:43:17;;;;;;;34.27;21.53;;;17.20;99.90;;;;;;5087512;28;20333;-67
2021/08/22 01:45:45;;;;;;;36.43;21.50;;;17.20;99.90;;;;;;5079639;28;20210;-67
2021/08/22 01:48:15;;;;;;;35.10;21.20;;;17.20;99.90;;;;;;5081280;28;20182;-67
2021/08/22 01:50:44;;;;;;;34.43;20.47;;;17.20;99.90;;;;;;5080814;28;20183;-67
2021/08/22 01:53:13;;;;;;;34.80;22.07;;;17.20;99.90;;;;;;5086483;28;20177;-67
2021/08/22 01:55:42;;;;;;;37.47;22.80;;;17.20;99.90;;;;;;5082622;28;20174;-67
2021/08/22 01:58:11;;;;;;;35.90;21.57;;;17.10;99.90;;;;;;5083566;28;20192;-67
2021/08/22 02:00:39;;;;;;;33.57;20.13;;;17.10;99.90;;;;;;5083787;28;20366;-67
2021/08/22 02:03:12;;;;;;;32.83;19.70;;;17.10;99.90;;;;;;5083409;28;20363;-67
2021/08/22 02:05:43;;;;;;;33.20;20.40;;;17.20;99.90;;;;;;5081314;28;20226;-68
2021/08/22 02:08:16;;;;;;;30.27;20.03;;;17.10;99.90;;;;;;5088979;28;20184;-67
2021/08/22 02:10:50;;;;;;;27.60;18.67;;;17.10;99.90;;;;;;5097961;28;20177;-67
2021/08/22 02:13:23;;;;;;;31.20;19.60;;;17.20;99.90;;;;;;5082442;28;20224;-67
2021/08/22 02:15:55;;;;;;;33.33;20.43;;;17.10;99.90;;;;;;5081471;28;20216;-67
2021/08/22 02:18:26;;;;;;;29.80;19.30;;;17.20;99.90;;;;;;5091355;28;20419;-67
2021/08/22 02:20:56;;;;;;;30.27;18.40;;;17.20;99.90;;;;;;5072357;28;20181;-67
2021/08/22 02:23:24;;;;;;;29.70;19.20;;;17.10;99.90;;;;;;5079767;28;20190;-67
2021/08/22 02:25:53;;;;;;;25.70;17.57;;;17.10;99.90;;;;;;5080327;28;20213;-67
2021/08/22 02:28:21;;;;;;;24.77;17.83;;;17.10;99.90;;;;;;5079299;28;20452;-67
2021/08/22 02:30:52;;;;;;;26.40;16.90;;;17.10;99.90;;;;;;5080454;28;20226;-67
2021/08/22 02:33:21;;;;;;;27.03;16.57;;;17.10;99.90;;;;;;5084202;28;20191;-67
2021/08/22 02:35:50;;;;;;;22.53;15.20;;;17.10;99.90;;;;;;5083244;28;20176;-67
2021/08/22 02:38:19;;;;;;;23.83;15.07;;;17.10;99.90;;;;;;5083917;28;20181;-67
2021/08/22 02:40:48;;;;;;;21.47;13.57;;;17.10;99.90;;;;;;5085356;28;20188;-67
2021/08/22 02:43:16;;;;;;;21.63;13.90;;;17.10;99.90;;;;;;5084616;28;20180;-67
2021/08/22 02:45:44;;;;;;;19.53;13.70;;;17.10;99.90;;;;;;5085473;28;20334;-68
2021/08/22 02:48:13;;;;;;;18.90;13.30;;;17.00;99.90;;;;;;5084262;28;20177;-67
2021/08/22 02:50:42;;;;;;;17.60;13.30;;;17.00;99.90;;;;;;5083346;28;20346;-67
2021/08/22 02:53:10;;;;;;;19.07;13.20;;;17.00;99.90;;;;;;5081764;28;20180;-67
2021/08/22 02:55:40;;;;;;;20.40;13.27;;;17.00;99.90;;;;;;5084420;28;20219;-67
2021/08/22 02:58:08;;;;;;;17.47;12.57;;;16.90;99.90;;;;;;5085743;28;20198;-67
2021/08/22 03:00:39;;;;;;;18.03;14.07;;;17.00;99.90;;;;;;5085049;28;20238;-67
2021/08/22 03:03:08;;;;;;;18.60;12.90;;;17.00;99.90;;;;;;5098783;28;20195;-67
2021/08/22 03:05:36;;;;;;;22.17;13.47;;;17.00;99.90;;;;;;5098238;28;20200;-67
2021/08/22 03:08:05;;;;;;;19.20;12.60;;;17.00;99.90;;;;;;5082225;28;20177;-67
2021/08/22 03:10:34;;;;;;;18.77;13.10;;;17.00;99.90;;;;;;5082901;28;20412;-67
2021/08/22 03:13:04;;;;;;;21.20;12.37;;;16.90;99.90;;;;;;5082130;28;20188;-67
2021/08/22 03:15:33;;;;;;;17.80;12.00;;;16.90;99.90;;;;;;5083231;28;20187;-67
2021/08/22 03:18:02;;;;;;;14.37;12.30;;;16.90;99.90;;;;;;5082854;28;20199;-67
2021/08/22 03:20:32;;;;;;;18.83;11.77;;;16.80;99.90;;;;;;5081085;28;20178;-67
2021/08/22 03:23:01;;;;;;;18.80;11.77;;;16.80;99.90;;;;;;5107366;28;20176;-67
2021/08/22 03:25:54;;;;;;;19.60;12.47;;;16.80;99.90;;;;;;5071980;28;20196;-67
2021/08/22 03:28:24;;;;;;;17.47;12.07;;;16.80;99.90;;;;;;5085381;28;20216;-67
2021/08/22 03:30:53;;;;;;;14.90;12.17;;;16.80;99.90;;;;;;5084161;28;20263;-67
2021/08/22 03:33:21;;;;;;;18.97;12.13;;;16.80;99.90;;;;;;5080108;28;20184;-67
2021/08/22 03:35:50;;;;;;;16.60;11.40;;;16.80;99.90;;;;;;5084302;28;20308;-67
2021/08/22 03:38:18;;;;;;;18.77;12.40;;;16.80;99.90;;;;;;5081892;28;20188;-67
2021/08/22 03:40:47;;;;;;;17.87;10.93;;;16.90;99.90;;;;;;5084239;28;20176;-67
2021/08/22 03:43:15;;;;;;;16.73;11.73;;;16.90;99.90;;;;;;5081492;28;20188;-67
2021/08/22 03:45:45;;;;;;;17.77;11.47;;;16.90;99.90;;;;;;5082730;28;20221;-67
2021/08/22 03:48:13;;;;;;;17.77;11.30;;;16.90;99.90;;;;;;5084480;28;20235;-66
2021/08/22 03:50:41;;;;;;;14.63;10.53;;;16.90;99.90;;;;;;5084420;28;20199;-67
2021/08/22 03:53:10;;;;;;;19.10;10.80;;;17.00;99.90;;;;;;5086159;28;20423;-67
2021/08/22 03:55:38;;;;;;;12.90;9.57;;;17.00;99.90;;;;;;5084915;28;20408;-67
2021/08/22 03:58:06;;;;;;;12.90;9.40;;;17.00;99.90;;;;;;5072733;28;20421;-67
2021/08/22 04:00:35;;;;;;;17.77;9.77;;;17.10;99.90;;;;;;5082900;28;20181;-67
2021/08/22 04:03:04;;;;;;;17.77;9.73;;;17.10;99.90;;;;;;5080937;28;20192;-67
2021/08/22 04:05:33;;;;;;;14.40;9.10;;;17.00;99.90;;;;;;5084126;28;20196;-67
2021/08/22 04:08:02;;;;;;;13.97;8.70;;;17.10;99.90;;;;;;5085344;28;20342;-67
2021/08/22 04:10:31;;;;;;;14.47;9.47;;;17.00;99.90;;;;;;5082183;28;20455;-67
2021/08/22 04:13:28;;;;;;;12.17;8.70;;;17.10;99.90;;;;;;5081865;28;20190;-67
2021/08/22 04:16:37;;;;;;;11.10;8.03;;;17.10;99.90;;;;;;5072533;28;20268;-67
2021/08/22 04:19:30;;;;;;;11.17;7.23;;;17.10;99.90;;;;;;5090677;28;20237;-67
2021/08/22 04:22:03;;;;;;;11.27;7.83;;;17.10;99.90;;;;;;5084542;28;20241;-67
2021/08/22 04:24:32;;;;;;;7.97;6.93;;;17.10;99.90;;;;;;5080381;28;20195;-67
2021/08/22 04:27:00;;;;;;;11.87;7.57;;;17.10;99.90;;;;;;5087148;28;20211;-67
2021/08/22 04:29:30;;;;;;;8.83;6.87;;;17.10;99.90;;;;;;5083070;28;20181;-67
2021/08/22 04:31:58;;;;;;;9.03;7.13;;;17.10;99.90;;;;;;5090853;28;20228;-67
2021/08/22 04:34:26;;;;;;;13.90;6.87;;;17.10;99.90;;;;;;5086199;28;20184;-67
2021/08/22 04:36:59;;;;;;;9.37;6.50;;;17.00;99.90;;;;;;5090487;28;20180;-67
2021/08/22 04:39:27;;;;;;;8.27;6.63;;;17.00;99.90;;;;;;5087878;28;20326;-67
2021/08/22 04:41:55;;;;;;;9.03;6.50;;;17.00;99.90;;;;;;5082583;28;20222;-67
2021/08/22 04:44:23;;;;;;;10.20;6.40;;;17.00;99.90;;;;;;5086635;28;20190;-67
2021/08/22 04:46:51;;;;;;;11.00;6.60;;;17.00;99.90;;;;;;5090729;28;20328;-67
2021/08/22 04:49:20;;;;;;;10.77;6.20;;;17.00;99.90;;;;;;5078534;28;20185;-67
2021/08/22 04:51:49;;;;;;;7.67;5.97;;;17.00;99.90;;;;;;5098676;28;20178;-67
2021/08/22 04:54:22;;;;;;;9.47;6.37;;;17.00;99.90;;;;;;5080885;28;20352;-66
2021/08/22 04:56:50;;;;;;;9.37;5.77;;;17.10;99.90;;;;;;5083215;28;20324;-67
2021/08/22 04:59:18;;;;;;;8.37;5.43;;;17.00;99.90;;;;;;5083669;28;20184;-67
2021/08/22 05:01:47;;;;;;;8.50;5.20;;;17.00;99.90;;;;;;5084927;28;20184;-67
2021/08/22 05:04:16;;;;;;;8.07;5.67;;;17.10;99.90;;;;;;5085338;28;20180;-67
2021/08/22 05:06:44;;;;;;;8.70;5.20;;;17.00;99.90;;;;;;5092303;28;20204;-67
2021/08/22 05:09:13;;;;;;;8.03;5.33;;;17.00;99.90;;;;;;5080394;28;20180;-67
2021/08/22 05:11:42;;;;;;;9.67;5.47;;;17.00;99.90;;;;;;5082080;28;20180;-67
2021/08/22 05:14:10;;;;;;;7.07;5.23;;;17.00;99.90;;;;;;5083560;28;20176;-67
2021/08/22 05:16:41;;;;;;;6.70;5.60;;;17.00;99.90;;;;;;5081191;28;20312;-67
2021/08/22 05:19:09;;;;;;;8.93;6.23;;;16.90;99.90;;;;;;5090781;28;20172;-67
2021/08/22 05:21:38;;;;;;;10.03;5.47;;;17.00;99.90;;;;;;5083907;28;20181;-67
2021/08/22 05:24:07;;;;;;;9.37;5.77;;;17.00;99.90;;;;;;5087009;28;20184;-67
2021/08/22 05:26:35;;;;;;;8.37;6.03;;;17.10;99.90;;;;;;5079957;28;20229;-67
2021/08/22 05:29:05;;;;;;;9.87;5.60;;;17.10;99.90;;;;;;5097964;28;20404;-67
2021/08/22 05:31:33;;;;;;;6.13;5.40;;;17.00;99.90;;;;;;5084119;28;20216;-67
2021/08/22 05:34:01;;;;;;;11.97;5.80;;;17.00;99.90;;;;;;5082289;28;20180;-67
2021/08/22 05:36:35;;;;;;;10.40;5.77;;;17.00;99.90;;;;;;5081482;28;20177;-67
2021/08/22 05:39:04;;;;;;;7.73;5.10;;;17.00;99.90;;;;;;5083451;28;20238;-67
2021/08/22 05:41:33;;;;;;;6.00;5.20;;;17.10;99.90;;;;;;5084754;28;20183;-67
2021/08/22 05:44:02;;;;;;;7.87;4.97;;;17.10;99.90;;;;;;5076983;28;20181;-67
2021/08/22 05:46:32;;;;;;;8.07;6.03;;;17.10;99.90;;;;;;5090146;28;20443;-67
2021/08/22 05:49:01;;;;;;;10.77;5.20;;;17.10;99.90;;;;;;5088579;28;20199;-67
2021/08/22 05:51:29;;;;;;;6.37;4.97;;;17.10;99.90;;;;;;5082788;28;20180;-67
2021/08/22 05:53:57;;;;;;;8.57;5.13;;;17.10;99.90;;;;;;5075278;28;20388;-67
2021/08/22 05:56:26;;;;;;;8.50;4.77;;;17.10;99.90;;;;;;5088291;28;20219;-67
2021/08/22 05:58:55;;;;;;;7.10;5.30;;;17.10;99.90;;;;;;5081020;28;20461;-66
2021/08/22 06:01:24;;;;;;;9.20;5.23;;;17.10;99.90;;;;;;5081036;28;20218;-67
2021/08/22 06:03:53;;;;;;;8.50;5.50;;;17.10;99.90;;;;;;5074727;28;20264;-67
2021/08/22 06:06:22;;;;;;;11.67;5.33;;;17.10;99.90;;;;;;5090418;28;20190;-67
2021/08/22 06:08:51;;;;;;;11.93;5.43;;;17.10;99.90;;;;;;5083700;28;20177;-67
2021/08/22 06:11:19;;;;;;;10.03;5.30;;;17.10;99.90;;;;;;5081968;28;20178;-67
2021/08/22 06:13:47;;;;;;;9.87;5.03;;;17.20;99.90;;;;;;5087836;28;20181;-66
2021/08/22 06:16:15;;;;;;;10.43;4.70;;;17.20;99.90;;;;;;5083448;28;20178;-66
2021/08/22 06:18:44;;;;;;;8.47;5.10;;;17.30;99.90;;;;;;5085797;28;20234;-67
2021/08/22 06:21:13;;;;;;;12.10;5.40;;;17.30;99.90;;;;;;5085639;28;20181;-67
2021/08/22 06:23:42;;;;;;;7.27;4.90;;;17.30;99.90;;;;;;5078857;28;20280;-66
2021/08/22 06:26:10;;;;;;;9.17;5.37;;;17.40;99.90;;;;;;5086082;28;20199;-67
2021/08/22 06:28:39;;;;;;;9.47;5.10;;;17.40;99.90;;;;;;5073745;28;20199;-67
2021/08/22 06:31:07;;;;;;;15.17;5.60;;;17.30;99.90;;;;;;5080222;28;20344;-67
2021/08/22 06:33:36;;;;;;;8.50;5.63;;;17.40;99.90;;;;;;5086552;28;20180;-67
2021/08/22 06:36:06;;;;;;;9.37;5.73;;;17.40;99.90;;;;;;5081809;28;20186;-67
2021/08/22 06:38:36;;;;;;;9.60;5.00;;;17.40;99.90;;;;;;5086154;28;20171;-67
2021/08/22 06:41:04;;;;;;;15.73;5.70;;;17.50;99.90;;;;;;5081939;28;20366;-67
2021/08/22 06:43:33;;;;;;;10.20;5.60;;;17.50;99.90;;;;;;5082673;28;20183;-67
2021/08/22 06:46:01;;;;;;;9.73;5.73;;;17.50;99.90;;;;;;5080247;28;20183;-67
2021/08/22 06:48:29;;;;;;;17.77;6.40;;;17.50;99.90;;;;;;5081292;28;20350;-66
2021/08/22 06:50:58;;;;;;;8.27;5.50;;;17.50;99.90;;;;;;5077033;28;20202;-67
2021/08/22 06:53:26;;;;;;;9.97;6.17;;;17.50;99.90;;;;;;5077668;28;20193;-67
2021/08/22 06:55:57;;;;;;;11.43;6.37;;;17.60;99.90;;;;;;5081252;28;20183;-67
2021/08/22 06:58:26;;;;;;;8.77;5.90;;;17.70;99.90;;;;;;5084112;28;20178;-67
2021/08/22 07:00:54;;;;;;;12.87;6.17;;;17.80;99.90;;;;;;5082378;28;20259;-67
2021/08/22 07:03:49;;;;;;;12.83;5.60;;;18.00;99.90;;;;;;5080587;28;20230;-67
2021/08/22 07:06:18;;;;;;;9.77;5.33;;;18.10;99.90;;;;;;5083263;28;20203;-67
2021/08/22 07:08:46;;;;;;;11.67;6.20;;;18.40;99.90;;;;;;5073354;28;20184;-67
2021/08/22 07:11:16;;;;;;;7.73;5.33;;;18.50;99.90;;;;;;5081856;28;20196;-66
2021/08/22 07:13:44;;;;;;;10.93;5.90;;;18.50;99.90;;;;;;5081463;28;20184;-67
2021/08/22 07:16:12;;;;;;;10.37;5.63;;;18.60;99.90;;;;;;5079187;28;20175;-67
2021/08/22 07:18:41;;;;;;;12.00;5.93;;;18.60;99.90;;;;;;5080948;28;20251;-67
2021/08/22 07:21:09;;;;;;;13.60;5.93;;;18.50;99.90;;;;;;5081658;28;20172;-67
2021/08/22 07:23:37;;;;;;;9.20;6.30;;;18.60;99.90;;;;;;5082507;28;20189;-66
2021/08/22 07:26:06;;;;;;;11.27;5.47;;;18.60;99.90;;;;;;5083259;28;20361;-67
2021/08/22 07:28:35;;;;;;;11.00;6.20;;;18.60;99.90;;;;;;5075502;28;20229;-67
2021/08/22 07:31:06;;;;;;;11.13;6.50;;;18.50;99.90;;;;;;5078527;28;20336;-66
2021/08/22 07:33:35;;;;;;;11.73;6.30;;;18.50;99.90;;;;;;5075218;28;20383;-67
2021/08/22 07:36:03;;;;;;;11.53;6.93;;;18.70;99.90;;;;;;5079767;28;20335;-67
2021/08/22 07:38:32;;;;;;;12.80;6.33;;;18.70;99.90;;;;;;5087814;28;20434;-67
2021/08/22 07:41:00;;;;;;;11.27;6.93;;;18.70;99.90;;;;;;5079487;28;20184;-67
2021/08/22 07:43:29;;;;;;;10.43;7.07;;;18.70;99.90;;;;;;5085473;28;20180;-67
2021/08/22 07:45:58;;;;;;;12.60;6.73;;;18.70;99.90;;;;;;5084374;28;20187;-67
2021/08/22 07:48:27;;;;;;;9.43;6.37;;;18.80;99.90;;;;;;5108578;28;20199;-66
2021/08/22 07:50:55;;;;;;;10.53;6.60;;;18.70;99.90;;;;;;5086835;28;20312;-67
2021/08/22 07:53:23;;;;;;;14.23;7.90;;;18.70;99.90;;;;;;5087480;28;20227;-66
2021/08/22 07:55:51;;;;;;;9.93;7.20;;;18.50;99.90;;;;;;5076129;28;21410;-67
2021/08/22 07:58:20;;;;;;;12.37;7.43;;;18.50;99.90;;;;;;5078853;28;20184;-67
2021/08/22 08:00:49;;;;;;;9.87;7.33;;;18.30;99.90;;;;;;5077143;28;20177;-67
2021/08/22 08:03:18;;;;;;;11.43;7.63;;;18.30;99.90;;;;;;5079520;28;20435;-67
2021/08/22 08:05:47;;;;;;;15.67;8.00;;;18.30;99.90;;;;;;5077567;28;20437;-67
2021/08/22 08:08:15;;;;;;;12.77;7.27;;;18.30;99.90;;;;;;5080703;28;20514;-67
2021/08/22 08:10:46;;;;;;;13.40;6.97;;;18.30;99.90;;;;;;5080114;28;20199;-66
2021/08/22 08:13:14;;;;;;;12.77;6.70;;;18.10;99.90;;;;;;5078012;28;20188;-67
2021/08/22 08:15:43;;;;;;;11.20;6.20;;;18.10;99.90;;;;;;5079805;28;20183;-68
2021/08/22 08:18:11;;;;;;;10.77;6.73;;;18.00;99.90;;;;;;5080117;28;20175;-68
2021/08/22 08:20:41;;;;;;;11.30;5.93;;;18.00;99.90;;;;;;5077507;28;20184;-68
2021/08/22 08:23:09;;;;;;;5.47;4.97;;;18.00;99.90;;;;;;5080223;28;20222;-68
2021/08/22 08:25:37;;;;;;;7.13;4.97;;;18.00;99.90;;;;;;5075419;28;20194;-67
2021/08/22 08:28:06;;;;;;;10.23;4.97;;;18.10;99.90;;;;;;5076293;28;20786;-68
2021/08/22 08:30:35;;;;;;;5.33;4.27;;;18.20;99.90;;;;;;5092817;28;20257;-67
2021/08/22 08:33:03;;;;;;;7.40;3.70;;;18.30;99.90;;;;;;5073519;28;20505;-68
2021/08/22 08:35:31;;;;;;;6.03;4.00;;;18.30;99.90;;;;;;5078463;28;20292;-67
2021/08/22 08:38:01;;;;;;;4.63;3.63;;;18.30;99.90;;;;;;5094594;28;20180;-68
2021/08/22 08:40:30;;;;;;;4.90;3.93;;;18.40;99.90;;;;;;5080918;28;20172;-67
2021/08/22 08:42:58;;;;;;;5.10;3.87;;;18.40;99.90;;;;;;5076291;28;20435;-67
2021/08/22 08:45:43;;;;;;;5.50;3.37;;;18.40;99.90;;;;;;5077314;28;20222;-68
2021/08/22 08:48:12;;;;;;;5.97;3.40;;;18.40;99.90;;;;;;5076925;28;20204;-68
2021/08/22 08:50:41;;;;;;;4.47;3.30;;;18.40;99.90;;;;;;5078254;28;20192;-67
2021/08/22 08:53:11;;;;;;;3.33;2.90;;;18.40;99.90;;;;;;5076347;28;20179;-67
2021/08/22 08:55:40;;;;;;;4.93;3.10;;;18.30;99.90;;;;;;5080727;28;20422;-68
2021/08/22 08:58:08;;;;;;;3.63;3.30;;;18.30;99.90;;;;;;5079148;28;20244;-67
2021/08/22 09:00:37;;;;;;;3.70;3.40;;;18.20;99.90;;;;;;5079917;28;20191;-67
2021/08/22 09:03:05;;;;;;;3.20;2.90;;;18.20;99.90;;;;;;5075935;28;20180;-68
2021/08/22 09:05:38;;;;;;;5.37;3.80;;;18.20;99.90;;;;;;5076245;28;20266;-68
2021/08/22 09:09:00;;;;;;;7.27;3.67;;;18.20;99.90;;;;;;5074792;28;20215;-67
2021/08/22 09:12:05;;;;;;;7.50;3.73;;;18.30;99.90;;;;;;5074587;28;20184;-68
2021/08/22 09:15:11;;;;;;;7.97;3.90;;;18.40;99.90;;;;;;5077960;28;20228;-67
2021/08/22 09:18:17;;;;;;;5.37;3.43;;;18.70;99.90;;;;;;5074831;28;20179;-67
2021/08/22 09:21:37;;;;;;;6.37;3.40;;;18.80;99.90;;;;;;5080007;28;20323;-68
2021/08/22 09:24:42;;;;;;;5.27;3.60;;;19.00;99.90;;;;;;5076245;28;20255;-68
2021/08/22 09:28:14;;;;;;;4.10;3.80;;;19.50;99.90;;;;;;5075661;28;20176;-68
2021/08/22 09:31:15;;;;;;;5.17;3.73;;;19.90;99.90;;;;;;5074854;28;20481;-68
2021/08/22 09:34:25;;;;;;;4.17;3.03;;;20.80;99.90;;;;;;5075452;28;20184;-69
2021/08/22 09:37:32;;;;;;;3.57;3.30;;;21.30;99.90;;;;;;5052116;28;20253;-68
2021/08/22 09:40:37;;;;;;;3.20;2.90;;;21.20;99.90;;;;;;5074537;28;20293;-67
2021/08/22 09:43:42;;;;;;;3.30;2.57;;;21.50;99.90;;;;;;5074370;28;20179;-68
2021/08/22 09:47:03;;;;;;;3.20;2.73;;;21.80;99.90;;;;;;5072928;28;20199;-68
2021/08/22 09:50:23;;;;;;;3.00;2.80;;;21.50;99.90;;;;;;5077023;28;20231;-67
2021/08/22 09:53:24;;;;;;;2.93;2.77;;;21.10;99.90;;;;;;5034039;28;20417;-67
2021/08/22 09:56:35;;;;;;;4.43;2.63;;;21.10;99.90;;;;;;4977944;28;20528;-68
2021/08/22 09:59:46;;;;;;;2.80;2.60;;;21.00;99.90;;;;;;5090307;28;20192;-67
2021/08/22 10:02:43;;;;;;;2.80;2.60;;;21.00;99.90;;;;;;5074482;28;20198;-68
2021/08/22 10:05:34;;;;;;;2.50;2.30;;;21.10;99.90;;;;;;5079237;28;20200;-68
2021/08/22 10:08:29;;;;;;;3.43;2.60;;;21.00;99.90;;;;;;5078918;28;20241;-68
2021/08/22 10:10:59;;;;;;;2.43;2.30;;;20.90;99.90;;;;;;5076725;28;20188;-68
2021/08/22 10:13:28;;;;;;;2.40;2.30;;;20.60;99.90;;;;;;5074836;28;20242;-68
2021/08/22 10:15:58;;;;;;;2.93;2.37;;;20.40;99.90;;;;;;5075901;28;20196;-68
2021/08/22 10:18:27;;;;;;;2.20;2.00;;;20.10;99.90;;;;;;5076440;28;20176;-68
2021/08/22 10:21:02;;;;;;;3.27;1.80;;;20.10;99.90;;;;;;5076668;28;20190;-67
2021/08/22 10:23:53;;;;;;;2.00;1.90;;;19.90;99.90;;;;;;5076099;28;20221;-67
2021/08/22 10:26:51;;;;;;;2.20;2.10;;;19.90;99.90;;;;;;5074212;28;20176;-68
2021/08/22 10:29:27;;;;;;;3.07;2.10;;;19.80;99.90;;;;;;5075356;28;20199;-68
2021/08/22 10:32:10;;;;;;;2.80;2.10;;;19.70;99.90;;;;;;5077964;28;20290;-68
2021/08/22 10:34:39;;;;;;;3.93;2.40;;;19.70;99.90;;;;;;5075238;28;20187;-68
2021/08/22 10:37:29;;;;;;;2.20;2.10;;;19.60;99.90;;;;;;5076042;28;20192;-68
2021/08/22 10:39:59;;;;;;;2.20;2.10;;;19.60;99.90;;;;;;5078967;28;20187;-68
2021/08/22 10:42:28;;;;;;;2.10;1.93;;;19.70;99.90;;;;;;5075809;28;20198;-68
2021/08/22 10:44:57;;;;;;;2.10;1.80;;;19.80;99.90;;;;;;5072524;28;20580;-68
2021/08/22 10:47:43;;;;;;;1.80;1.70;;;19.90;99.90;;;;;;5073027;28;20436;-68
2021/08/22 10:50:14;;;;;;;3.20;1.70;;;20.00;99.90;;;;;;5074783;28;20203;-68
2021/08/22 10:52:43;;;;;;;1.50;1.50;;;20.10;99.90;;;;;;5077949;28;20395;-68
2021/08/22 10:55:38;;;;;;;1.80;1.70;;;20.10;99.90;;;;;;5081713;28;20439;-69
2021/08/22 10:58:07;;;;;;;2.00;1.90;;;20.10;99.90;;;;;;5034750;28;20204;-68
2021/08/22 11:00:38;;;;;;;2.17;2.03;;;20.20;99.90;;;;;;5082164;28;20194;-68
2021/08/22 11:03:21;;;;;;;2.43;1.80;;;20.20;99.90;;;;;;5078920;28;20194;-68
2021/08/22 11:05:50;;;;;;;2.47;2.30;;;20.10;99.90;;;;;;5085378;28;20438;-68
2021/08/22 11:08:20;;;;;;;3.27;2.53;;;20.10;99.90;;;;;;5081192;28;20199;-68
2021/08/22 11:10:58;;;;;;;2.80;2.10;;;20.30;99.90;;;;;;5078310;28;20212;-68
2021/08/22 11:13:27;;;;;;;2.90;2.20;;;20.30;99.90;;;;;;5079192;28;20176;-68
2021/08/22 11:15:56;;;;;;;2.17;2.07;;;20.20;99.90;;;;;;5079300;28;20183;-67
2021/08/22 11:18:25;;;;;;;1.97;1.87;;;20.20;99.90;;;;;;5079741;28;20230;-68
2021/08/22 11:20:54;;;;;;;3.60;2.53;;;20.10;99.90;;;;;;5082363;28;20185;-67
2021/08/22 11:23:24;;;;;;;2.43;2.23;;;19.80;99.90;;;;;;5080376;28;20187;-69
2021/08/22 11:26:02;;;;;;;2.13;2.03;;;19.60;99.90;;;;;;5079178;28;20420;-69
2021/08/22 11:28:31;;;;;;;2.73;2.47;;;19.60;99.90;;;;;;5079929;28;20176;-68
2021/08/22 11:30:59;;;;;;;5.83;2.53;;;19.60;99.90;;;;;;5080747;28;20304;-69
2021/08/22 11:33:32;;;;;;;4.43;2.50;;;19.80;99.90;;;;;;5080235;28;20359;-68
2021/08/22 11:36:04;;;;;;;3.20;2.90;;;19.80;99.90;;;;;;5080160;28;20226;-68
2021/08/22 11:38:33;;;;;;;3.30;3.07;;;19.80;99.90;;;;;;5079568;28;20427;-68
2021/08/22 11:41:02;;;;;;;4.17;3.10;;;19.80;99.90;;;;;;5078873;28;20241;-68
2021/08/22 11:43:31;;;;;;;3.10;2.90;;;19.80;99.90;;;;;;5079194;28;20182;-68
2021/08/22 11:46:00;;;;;;;3.10;2.90;;;19.80;99.90;;;;;;5076956;28;20193;-67
2021/08/22 11:48:33;;;;;;;4.07;3.30;;;19.80;99.90;;;;;;5076657;28;20207;-68
2021/08/22 11:51:02;;;;;;;4.70;4.30;;;19.70;99.90;;;;;;5077343;28;20306;-67
2021/08/22 11:53:33;;;;;;;6.37;4.87;;;19.50;99.90;;;;;;5074868;28;20195;-68
2021/08/22 11:56:01;;;;;;;5.23;4.93;;;19.40;99.90;;;;;;5079427;28;20180;-68
2021/08/22 11:58:34;;;;;;;6.20;5.70;;;19.30;99.90;;;;;;5078018;28;20447;-69
2021/08/22 12:01:14;;;;;;;6.00;5.50;;;19.30;99.90;;;;;;5080272;28;20472;-68
2021/08/22 12:03:57;;;;;;;6.33;5.83;;;19.40;99.90;;;;;;5081518;28;20180;-69
2021/08/22 12:06:28;;;;;;;8.50;7.37;;;19.50;99.90;;;;;;5078320;28;20180;-68
2021/08/22 12:08:57;;;;;;;5.83;5.43;;;19.70;99.90;;;;;;5079464;28;20709;-67
2021/08/22 12:11:32;;;;;;;5.30;4.90;;;19.70;99.90;;;;;;5081608;28;20230;-68
2021/08/22 12:14:14;;;;;;;6.07;5.43;;;19.80;99.90;;;;;;5079531;28;20423;-68
2021/08/22 12:16:55;;;;;;;9.63;6.10;;;19.80;99.90;;;;;;5078849;28;20255;-69
2021/08/22 12:19:27;;;;;;;6.73;5.50;;;19.80;99.90;;;;;;5080865;28;20179;-69
2021/08/22 12:21:57;;;;;;;6.53;5.33;;;19.80;99.90;;;;;;5079250;28;20277;-68
2021/08/22 12:24:28;;;;;;;6.43;5.57;;;19.80;99.90;;;;;;5077442;28;20180;-68
2021/08/22 12:26:57;;;;;;;7.00;6.00;;;19.90;99.90;;;;;;5078281;28;20196;-69
2021/08/22 12:29:30;;;;;;;7.33;5.80;;;19.90;99.90;;;;;;5076476;28;20196;-67
2021/08/22 12:32:08;;;;;;;6.40;5.73;;;19.90;99.90;;;;;;5077309;28;20239;-68
2021/08/22 12:34:38;;;;;;;9.07;6.37;;;19.80;99.90;;;;;;5092786;28;20183;-68
2021/08/22 12:37:10;;;;;;;10.13;6.27;;;19.80;99.90;;;;;;5081492;28;20184;-68
2021/08/22 12:39:39;;;;;;;10.03;6.60;;;19.80;99.90;;;;;;5078792;28;20320;-68
2021/08/22 12:42:08;;;;;;;7.50;6.77;;;19.90;99.90;;;;;;5062810;28;20432;-69
2021/08/22 12:44:37;;;;;;;14.40;8.53;;;19.70;99.90;;;;;;5075759;28;20210;-69
2021/08/22 12:47:06;;;;;;;14.33;10.27;;;19.30;99.90;;;;;;5093733;28;20235;-72
2021/08/22 12:49:35;;;;;;;13.47;10.20;;;18.90;99.90;;;;;;5074083;28;20592;-72
2021/08/22 12:52:06;;;;;;;12.47;11.00;;;18.60;99.90;;;;;;5072416;28;20181;-73
2021/08/22 12:54:35;;;;;;;16.27;13.03;;;18.20;99.90;;;;;;5090698;28;20183;-73
2021/08/22 12:57:05;;;;;;;17.10;12.93;;;17.90;99.90;;;;;;5074676;28;20341;-74
2021/08/22 12:59:33;;;;;;;18.50;13.50;;;17.80;99.90;;;;;;5080782;28;20184;-74
2021/08/22 13:02:02;;;;;;;17.43;13.40;;;17.70;99.90;;;;;;5080216;28;20179;-74
2021/08/22 13:04:30;;;;;;;16.40;13.30;;;17.70;99.90;;;;;;5081246;28;21072;-74
2021/08/22 13:06:59;;;;;;;18.63;14.63;;;17.60;99.90;;;;;;5079653;28;20358;-70